LFSB 200030Z AUTO 17006KT CAVOK 20/15 Q1022 NOSIG LFSB 200000Z AUTO 16005KT CAVOK 21/16 Q1022 NOSIG LFSB 192330Z AUTO 18005KT CAVOK 21/16 Q1022 NOSIG LFSB 192300Z AUTO 16005KT CAVOK 20/16 Q1022 NOSIG LFSB 192230Z AUTO 17003KT CAVOK 20/16 Q1022 NOSIG LFSB 192200Z AUTO 15003KT 9999 FEW003 BKN140 21/17 Q1022 NOSIG LFSB 192130Z AUTO VRB03KT 9999 FEW017 BKN140 21/17 Q1022 NOSIG LFSB 192100Z AUTO VRB03KT CAVOK 21/16 Q1022 NOSIG LFSB 192030Z AUTO 00000KT CAVOK 22/16 Q1022 NOSIG LFSB 192000Z AUTO 00000KT CAVOK 22/16 Q1021 NOSIG LFSB 191930Z AUTO VRB01KT CAVOK 24/15 Q1021 NOSIG LFSB 191900Z AUTO VRB01KT CAVOK 26/15 Q1021 TEMPO SHRA FEW060CB LFSB 191830Z AUTO 07003KT CAVOK 27/16 Q1021 TEMPO SHRA FEW060CB LFSB 191800Z AUTO VRB03KT CAVOK 27/15 Q1021 TEMPO SHRA FEW060CB LFSB 191730Z AUTO VRB02KT CAVOK 29/14 Q1021 TEMPO SHRA FEW060CB LFSB 191700Z VRB01KT 9999 FEW050TCU SCT260 29/13 Q1021 TEMPO FEW060CB LFSB 191630Z 25004KT 9999 FEW050TCU SCT160 29/14 Q1021 TEMPO FEW060CB LFSB 191600Z 26006KT 220V300 9999 FEW033 FEW050CB SCT160 29/15 Q1021 TEMPO TS LFSB 191530Z 28009KT 250V310 9999 FEW033 FEW050CB SCT260 29/13 Q1021 TEMPO TSRA LFSB 191500Z 28010KT 230V310 9999 FEW033 FEW050CB SCT110 BKN260 29/13 Q1021 TEMPO TSRA LFSB 191430Z 27010KT 240V310 9999 FEW023 FEW050CB SCT110 BKN200 29/16 Q1021 TEMPO VRB15G25KT TSRA LFSB 191400Z 28006KT 230V310 9999 FEW023 FEW050CB SCT110 BKN230 28/16 Q1021 RETS TEMPO VRB15G25KT 2500 TSRA LFSB 191330Z VRB02KT 9999 VCSH FEW023 FEW050CB SCT110 BKN180 24/18 Q1021 RETSRA TEMPO VRB15G25KT 2500 TSRA LFSB 191300Z 22004KT 190V250 9999 TS VCSH FEW023 SCT050CB BKN080 24/18 Q1021 RESHRA TEMPO VRB15G25KT 2500 TSRA LFSB 191230Z 27009KT 240V300 9999 4000SW -TSRA FEW046CB BKN260 29/14 Q1021 TEMPO VRB15G25KT 2500 TSRA SCT050CB LFSB 191200Z 28008KT 230V330 9999 FEW050CB BKN260 30/15 Q1021 TEMPO 2500 TSRA SCT060CB LFSB 191100Z 34003KT 260V040 9999 FEW060TCU BKN260 30/15 Q1021 TEMPO SHRA FEW060CB LFSB 191030Z 16004KT 100V260 CAVOK 30/16 Q1021 BECMG FEW070TCU LFSB 191000Z 12003KT 050V180 CAVOK 29/14 Q1021 BECMG FEW070TCU LFSB 190930Z 13005KT 080V170 9999 FEW053 BKN260 28/15 Q1021 BECMG FEW070TCU LFSB 190900Z 15004KT 110V210 9999 FEW050 BKN260 27/14 Q1022 NOSIG LFSB 190830Z 12005KT 080V150 9999 FEW040 BKN260 25/15 Q1022 NOSIG LFSB 190800Z 13005KT 9999 FEW040 BKN260 25/15 Q1022 NOSIG LFSB 190730Z 15005KT 120V180 CAVOK 24/14 Q1022 NOSIG LFSB 190700Z 13007KT CAVOK 23/14 Q1022 NOSIG LFSB 190630Z 13007KT CAVOK 22/13 Q1022 NOSIG LFSB 190600Z 17006KT 110V220 CAVOK 20/13 Q1021 NOSIG LFSB 190530Z 18004KT 150V210 CAVOK 19/13 Q1021 NOSIG LFSB 190500Z 19005KT CAVOK 18/13 Q1021 NOSIG LFSB 190430Z AUTO 18005KT 150V210 CAVOK 17/12 Q1020 NOSIG LFSB 190400Z AUTO 19005KT CAVOK 17/12 Q1020 NOSIG LFSB 190330Z AUTO 18004KT CAVOK 18/12 Q1020 NOSIG LFSB 190300Z AUTO 16004KT CAVOK 18/12 Q1020 NOSIG LFSB 190230Z AUTO 16005KT CAVOK 18/12 Q1020 NOSIG LFSB 190200Z AUTO 16003KT CAVOK 18/12 Q1020 NOSIG LFSB 190130Z AUTO 14003KT CAVOK 18/12 Q1020 NOSIG LFSB 190100Z AUTO 14004KT CAVOK 19/12 Q1020 NOSIG LFSB 190030Z AUTO 14007KT CAVOK 20/12 Q1020 NOSIG LFSB 190000Z AUTO 15007KT CAVOK 20/12 Q1020 NOSIG LFSB 182330Z AUTO 16007KT CAVOK 20/12 Q1020 NOSIG LFSB 182300Z AUTO VRB03KT CAVOK 19/12 Q1020 NOSIG LFSB 182230Z AUTO VRB01KT CAVOK 17/13 Q1020 NOSIG LFSB 182200Z AUTO 00000KT CAVOK 17/13 Q1020 NOSIG LFSB 182130Z AUTO 25003KT 9999 FEW011 18/13 Q1020 NOSIG LFSB 182100Z AUTO 24002KT CAVOK 18/12 Q1020 NOSIG LFSB 182030Z AUTO VRB01KT 9999 FEW010 21/13 Q1019 NOSIG LFSB 182000Z AUTO VRB03KT CAVOK 23/13 Q1019 NOSIG LFSB 181930Z AUTO 07002KT CAVOK 24/11 Q1019 NOSIG LFSB 181900Z AUTO 08002KT CAVOK 25/11 Q1019 NOSIG LFSB 181830Z AUTO 08002KT CAVOK 27/11 Q1019 NOSIG LFSB 181800Z AUTO 09004KT CAVOK 28/11 Q1019 NOSIG LFSB 181730Z AUTO VRB02KT CAVOK 28/14 Q1019 NOSIG LFSB 181700Z 01003KT 340V050 CAVOK 29/14 Q1019 NOSIG LFSB 181630Z 02003KT 340V050 CAVOK 29/14 Q1019 NOSIG LFSB 181600Z 02004KT 350V070 CAVOK 29/14 Q1019 NOSIG LFSB 181530Z 02003KT 340V100 CAVOK 30/14 Q1019 NOSIG LFSB 181500Z 06003KT 360V130 CAVOK 29/14 Q1019 NOSIG LFSB 181430Z 04004KT 350V130 CAVOK 30/14 Q1020 NOSIG LFSB 181400Z 36005KT 310V060 CAVOK 29/14 Q1020 NOSIG LFSB 181330Z 35005KT 280V040 CAVOK 29/14 Q1020 NOSIG LFSB 181300Z 01007KT 310V070 CAVOK 29/13 Q1020 NOSIG

METAR Messwerte "BALE/MULHOUSE" LFSB

Zurück zur Übersicht

Ortsname
Ländercode / m ü. NN
Zeit Temperatur Taupunkt Rel.
Luftfeuchte
Luftdruck:
Altimeter
NN
Station
Wind in Beaufort
(Knoten)
Sichtweite
(Meter)
Wolken
(Meter über Grund)
Wettererscheinung
BALE/MULHOUSE
FR 262
Fr 20.05. 02:30201573 %1022
1022
991
S 2 (6)>= 10000Nicht signifikant 
BALE/MULHOUSE
FR 262
Fr 20.05. 02:00211673 %1022
1021
991
SSO 2 (5)>= 10000Nicht signifikant 
BALE/MULHOUSE
FR 262
Fr 20.05. 01:30211673 %1022
1021
991
S 2 (5)>= 10000Nicht signifikant 
BALE/MULHOUSE
FR 262
Fr 20.05. 01:00201678 %1022
1022
991
SSO 2 (5)>= 10000Nicht signifikant 
BALE/MULHOUSE
FR 262
Fr 20.05. 00:30201678 %1022
1022
991
S 2 (3)>= 10000Nicht signifikant 
BALE/MULHOUSE
FR 262
Fr 20.05. 00:00211778 %1022
1021
991
SSO 2 (3)>= 10000Stark bewölkt (4300)
Leicht bewölkt (91)
 
BALE/MULHOUSE
FR 262
Do 19.05. 23:30211778 %1022
1021
991
Uml 2 (3)>= 10000Stark bewölkt (4300)
Leicht bewölkt (520)
 
BALE/MULHOUSE
FR 262
Do 19.05. 23:00211673 %1022
1021
991
Uml 2 (3)>= 10000Nicht signifikant 
BALE/MULHOUSE
FR 262
Do 19.05. 22:30221669 %1022
1021
991
Windstill>= 10000Nicht signifikant 
BALE/MULHOUSE
FR 262
Do 19.05. 22:00221669 %1021
1020
990
Windstill>= 10000Nicht signifikant 
BALE/MULHOUSE
FR 262
Do 19.05. 21:30241557 %1021
1020
990
Uml 1 (1)>= 10000Nicht signifikant 
BALE/MULHOUSE
FR 262
Do 19.05. 21:00261551 %1021
1020
990
Uml 1 (1)>= 10000Nicht signifikant Bald zeitweise: Regen-Schauer
BALE/MULHOUSE
FR 262
Do 19.05. 20:30271651 %1021
1020
990
ONO 2 (3)>= 10000Nicht signifikant Bald zeitweise: Regen-Schauer
BALE/MULHOUSE
FR 262
Do 19.05. 20:00271548 %1021
1020
990
Uml 2 (3)>= 10000Nicht signifikant Bald zeitweise: Regen-Schauer
BALE/MULHOUSE
FR 262
Do 19.05. 19:30291440 %1021
1020
990
Uml 1 (2)>= 10000Nicht signifikant Bald zeitweise: Regen-Schauer
BALE/MULHOUSE
FR 262
Do 19.05. 19:00291337 %1021
1020
990
Uml 1 (1)>= 10000Wolkig (7900)
Leicht bewölkt (1500)
 
BALE/MULHOUSE
FR 262
Do 19.05. 18:30291440 %1021
1020
990
WSW 2 (4)>= 10000Wolkig (4900)
Leicht bewölkt (1500)
 
BALE/MULHOUSE
FR 262
Do 19.05. 18:00291543 %1021
1020
990
W 2 (6)
SW - WNW
>= 10000Wolkig (4900)
Leicht bewölkt Cb (1500)
Leicht bewölkt (1000)
 
BALE/MULHOUSE
FR 262
Do 19.05. 17:30291337 %1021
1020
990
W 3 (9)
WSW - NW
>= 10000Wolkig (7900)
Leicht bewölkt Cb (1500)
Leicht bewölkt (1000)
 Bald zeitweise: Gewitter mit Regen
BALE/MULHOUSE
FR 262
Do 19.05. 17:00291337 %1021
1020
990
W 3 (10)
SW - NW
>= 10000Stark bewölkt (7900)
Wolkig (3400)
Leicht bewölkt Cb (1500)
Leicht bewölkt (1000)
 Bald zeitweise: Gewitter mit Regen
BALE/MULHOUSE
FR 262
Do 19.05. 16:30291645 %1021
1020
990
W 3 (10)
WSW - NW
Bald zeitweise:
Uml 4 (15) - 6 (25)
>= 10000Stark bewölkt (6100)
Wolkig (3400)
Leicht bewölkt Cb (1500)
Leicht bewölkt (700)
 Bald zeitweise: Gewitter mit Regen
BALE/MULHOUSE
FR 262
Do 19.05. 16:00281648 %1021
1020
990
W 2 (6)
SW - NW
Bald zeitweise:
Uml 4 (15) - 6 (25)
>= 10000
Bald zeitweise: 2500
Stark bewölkt (7000)
Wolkig (3400)
Leicht bewölkt Cb (1500)
Leicht bewölkt (700)
 Bald zeitweise: Gewitter mit Regen
BALE/MULHOUSE
FR 262
Do 19.05. 15:30241869 %1021
1020
990
Uml 1 (2)
Bald zeitweise:
Uml 4 (15) - 6 (25)
>= 10000
Bald zeitweise: 2500
Stark bewölkt (5500)
Wolkig (3400)
Leicht bewölkt Cb (1500)
Leicht bewölkt (700)
 Bald zeitweise: Gewitter mit Regen
BALE/MULHOUSE
FR 262
Do 19.05. 15:00241869 %1021
1020
990
SW 2 (4)
S - WSW
Bald zeitweise:
Uml 4 (15) - 6 (25)
>= 10000
Bald zeitweise: 2500
Stark bewölkt (2400)
Wolkig Cb (1500)
Leicht bewölkt (700)
 Bald zeitweise: Gewitter mit Regen
BALE/MULHOUSE
FR 262
Do 19.05. 14:30291440 %1021
1020
990
W 3 (9)
WSW - WNW
Bald zeitweise:
Uml 4 (15) - 6 (25)
>= 10000
Bald zeitweise: 2500
Stark bewölkt (7900)
Leicht bewölkt Cb (1400)
Gewitter mit Regen (schwach)
Bald zeitweise: Gewitter mit Regen
BALE/MULHOUSE
FR 262
Do 19.05. 14:00301540 %1021
1019
990
W 3 (8)
SW - NNW
>= 10000
Bald zeitweise: 2500
Stark bewölkt (7900)
Leicht bewölkt Cb (1500)
 Bald zeitweise: Gewitter mit Regen
BALE/MULHOUSE
FR 262
Do 19.05. 13:00301540 %1021
1019
990
NNW 2 (3)
W - NO
>= 10000Stark bewölkt (7900)
Leicht bewölkt (1800)
 Bald zeitweise: Regen-Schauer
BALE/MULHOUSE
FR 262
Do 19.05. 12:30301643 %1021
1019
990
SSO 2 (4)
O - W
>= 10000Nicht signifikant 
BALE/MULHOUSE
FR 262
Do 19.05. 12:00291440 %1021
1020
990
OSO 2 (3)
NO - S
>= 10000Nicht signifikant 
BALE/MULHOUSE
FR 262
Do 19.05. 11:30281545 %1021
1020
990
SO 2 (5)
O - S
>= 10000Stark bewölkt (7900)
Leicht bewölkt (1600)
 
BALE/MULHOUSE
FR 262
Do 19.05. 11:00271445 %1022
1021
991
SSO 2 (4)
OSO - SSW
>= 10000Stark bewölkt (7900)
Leicht bewölkt (1500)
 
BALE/MULHOUSE
FR 262
Do 19.05. 10:30251554 %1022
1021
991
OSO 2 (5)
O - SSO
>= 10000Stark bewölkt (7900)
Leicht bewölkt (1200)
 
BALE/MULHOUSE
FR 262
Do 19.05. 10:00251554 %1022
1021
991
SO 2 (5)>= 10000Stark bewölkt (7900)
Leicht bewölkt (1200)
 
BALE/MULHOUSE
FR 262
Do 19.05. 09:30241454 %1022
1021
991
SSO 2 (5)
OSO - S
>= 10000Nicht signifikant 
BALE/MULHOUSE
FR 262
Do 19.05. 09:00231457 %1022
1021
991
SO 3 (7)>= 10000Nicht signifikant 
BALE/MULHOUSE
FR 262
Do 19.05. 08:30221357 %1022
1021
991
SO 3 (7)>= 10000Nicht signifikant 
BALE/MULHOUSE
FR 262
Do 19.05. 08:00201364 %1021
1021
990
S 2 (6)
OSO - SW
>= 10000Nicht signifikant 
BALE/MULHOUSE
FR 262
Do 19.05. 07:30191368 %1021
1021
990
S 2 (4)
SSO - SSW
>= 10000Nicht signifikant 
BALE/MULHOUSE
FR 262
Do 19.05. 07:00181373 %1021
1021
990
S 2 (5)>= 10000Nicht signifikant 
BALE/MULHOUSE
FR 262
Do 19.05. 06:30171272 %1020
1020
989
S 2 (5)
SSO - SSW
>= 10000Nicht signifikant 
BALE/MULHOUSE
FR 262
Do 19.05. 06:00171272 %1020
1020
989
S 2 (5)>= 10000Nicht signifikant 
BALE/MULHOUSE
FR 262
Do 19.05. 05:30181268 %1020
1020
989
S 2 (4)>= 10000Nicht signifikant 
BALE/MULHOUSE
FR 262
Do 19.05. 05:00181268 %1020
1020
989
SSO 2 (4)>= 10000Nicht signifikant 
BALE/MULHOUSE
FR 262
Do 19.05. 04:30181268 %1020
1020
989
SSO 2 (5)>= 10000Nicht signifikant 
BALE/MULHOUSE
FR 262
Do 19.05. 04:00181268 %1020
1020
989
SSO 2 (3)>= 10000Nicht signifikant 
BALE/MULHOUSE
FR 262
Do 19.05. 03:30181268 %1020
1020
989
SO 2 (3)>= 10000Nicht signifikant 
BALE/MULHOUSE
FR 262
Do 19.05. 03:00191264 %1020
1020
989
SO 2 (4)>= 10000Nicht signifikant 
BALE/MULHOUSE
FR 262
Do 19.05. 02:30201260 %1020
1020
989
SO 3 (7)>= 10000Nicht signifikant 
BALE/MULHOUSE
FR 262
Do 19.05. 02:00201260 %1020
1020
989
SSO 3 (7)>= 10000Nicht signifikant 
BALE/MULHOUSE
FR 262
Do 19.05. 01:30201260 %1020
1020
989
SSO 3 (7)>= 10000Nicht signifikant 
BALE/MULHOUSE
FR 262
Do 19.05. 01:00191264 %1020
1020
989
Uml 2 (3)>= 10000Nicht signifikant 
BALE/MULHOUSE
FR 262
Do 19.05. 00:30171377 %1020
1020
989
Uml 1 (1)>= 10000Nicht signifikant 
BALE/MULHOUSE
FR 262
Do 19.05. 00:00171377 %1020
1020
989
Windstill>= 10000Nicht signifikant 
BALE/MULHOUSE
FR 262
Mi 18.05. 23:30181373 %1020
1020
989
WSW 2 (3)>= 10000Leicht bewölkt (340) 
BALE/MULHOUSE
FR 262
Mi 18.05. 23:00181268 %1020
1020
989
WSW 1 (2)>= 10000Nicht signifikant 
BALE/MULHOUSE
FR 262
Mi 18.05. 22:30211360 %1019
1018
988
Uml 1 (1)>= 10000Leicht bewölkt (300) 
BALE/MULHOUSE
FR 262
Mi 18.05. 22:00231353 %1019
1018
988
Uml 2 (3)>= 10000Nicht signifikant 
BALE/MULHOUSE
FR 262
Mi 18.05. 21:30241144 %1019
1018
988
ONO 1 (2)>= 10000Nicht signifikant 
BALE/MULHOUSE
FR 262
Mi 18.05. 21:00251141 %1019
1018
988
O 1 (2)>= 10000Nicht signifikant 
BALE/MULHOUSE
FR 262
Mi 18.05. 20:30271137 %1019
1018
988
O 1 (2)>= 10000Nicht signifikant 
BALE/MULHOUSE
FR 262
Mi 18.05. 20:00281135 %1019
1018
988
O 2 (4)>= 10000Nicht signifikant 
BALE/MULHOUSE
FR 262
Mi 18.05. 19:30281442 %1019
1018
988
Uml 1 (2)>= 10000Nicht signifikant 
BALE/MULHOUSE
FR 262
Mi 18.05. 19:00291440 %1019
1018
988
N 2 (3)
NNW - NO
>= 10000Nicht signifikant 
BALE/MULHOUSE
FR 262
Mi 18.05. 18:30291440 %1019
1018
988
NNO 2 (3)
NNW - NO
>= 10000Nicht signifikant 
BALE/MULHOUSE
FR 262
Mi 18.05. 18:00291440 %1019
1018
988
NNO 2 (4)
N - ONO
>= 10000Nicht signifikant 
BALE/MULHOUSE
FR 262
Mi 18.05. 17:30301438 %1019
1017
988
NNO 2 (3)
NNW - O
>= 10000Nicht signifikant 
BALE/MULHOUSE
FR 262
Mi 18.05. 17:00291440 %1019
1018
988
ONO 2 (3)
N - SO
>= 10000Nicht signifikant 
BALE/MULHOUSE
FR 262
Mi 18.05. 16:30301438 %1020
1018
989
NO 2 (4)
N - SO
>= 10000Nicht signifikant 
BALE/MULHOUSE
FR 262
Mi 18.05. 16:00291440 %1020
1019
989
N 2 (5)
NW - ONO
>= 10000Nicht signifikant 
BALE/MULHOUSE
FR 262
Mi 18.05. 15:30291440 %1020
1019
989
N 2 (5)
W - NO
>= 10000Nicht signifikant 
BALE/MULHOUSE
FR 262
Mi 18.05. 15:00291337 %1020
1019
989
N 3 (7)
NW - ONO
>= 10000Nicht signifikant 

Altimeter: Einstellung am Altimeter (Höhenmesser), die Höhe 0 muss auf diesen Luftdruckwert zeigen, damit das Gerät die Stationshöhe richtig anzeigt.

NN: Luftdruck reduziert auf "Normal Null", auf Meereshöhe, dieser von der Temperatur abhängige Wert wird bisweilen unkorrekt einfach als "Luftdruck" bezeichnet. Eigentlich nur eine fiktive Größe, die es erlaubt, Stationen auf unterschiedlichen Höhen miteinander zu vergleichen.

Station: Realer Luftdruck an der Station.